createdAt,value
2024-01-31T00:00:53.407Z,945.00
2024-01-31T00:01:53.451Z,945.00
2024-01-31T00:02:53.408Z,942.00
2024-01-31T00:03:53.462Z,937.00
2024-01-31T00:04:53.562Z,939.00
2024-01-31T00:05:53.581Z,940.00
2024-01-31T00:06:53.605Z,941.00
2024-01-31T00:07:53.675Z,946.00
2024-01-31T00:08:53.758Z,947.00
2024-01-31T00:09:53.973Z,948.00
2024-01-31T00:10:53.866Z,947.00
2024-01-31T00:11:53.917Z,947.00
2024-01-31T00:12:54.078Z,944.00
2024-01-31T00:13:54.036Z,943.00
2024-01-31T00:14:54.150Z,941.00
2024-01-31T00:15:54.214Z,940.00
2024-01-31T00:16:54.202Z,939.00
2024-01-31T00:17:54.280Z,938.00
2024-01-31T00:18:54.398Z,939.00
2024-01-31T00:19:54.440Z,939.00
2024-01-31T00:20:54.466Z,942.00
2024-01-31T00:21:54.549Z,942.00
2024-01-31T00:22:54.565Z,943.00
2024-01-31T00:23:54.617Z,941.00
2024-01-31T00:24:54.727Z,940.00
2024-01-31T00:25:54.744Z,941.00
2024-01-31T00:26:54.802Z,938.00
2024-01-31T00:28:00.835Z,938.00
2024-01-31T00:28:54.919Z,937.00
2024-01-31T00:29:54.880Z,938.00
2024-01-31T00:30:54.975Z,938.00
2024-01-31T00:31:54.869Z,936.00
2024-01-31T00:32:54.922Z,938.00
2024-01-31T00:33:54.921Z,937.00
2024-01-31T00:34:54.957Z,938.00
2024-01-31T00:35:54.881Z,938.00
2024-01-31T00:36:54.920Z,941.00
2024-01-31T00:37:54.878Z,941.00
2024-01-31T00:38:54.877Z,941.00
2024-01-31T00:39:54.977Z,937.00
2024-01-31T00:40:54.891Z,938.00
2024-01-31T00:41:54.900Z,938.00
2024-01-31T00:42:54.960Z,938.00
2024-01-31T00:43:54.892Z,933.00
2024-01-31T00:44:54.900Z,929.00
2024-01-31T00:45:54.968Z,930.00
2024-01-31T00:46:55.285Z,929.00
2024-01-31T00:48:15.978Z,929.00
2024-01-31T00:48:55.132Z,932.00
2024-01-31T00:49:54.924Z,932.00
2024-01-31T00:50:54.900Z,932.00
2024-01-31T00:51:55.003Z,935.00
2024-01-31T00:52:54.920Z,935.00
2024-01-31T00:53:54.889Z,934.00
2024-01-31T00:54:54.910Z,929.00
2024-01-31T00:55:54.889Z,923.00
2024-01-31T00:56:54.900Z,922.00
2024-01-31T00:57:54.936Z,923.00
2024-01-31T00:58:54.922Z,922.00
2024-01-31T00:59:54.906Z,921.00
2024-01-31T01:00:55.019Z,922.00
2024-01-31T01:01:54.998Z,920.00
2024-01-31T01:02:54.914Z,924.00
2024-01-31T01:03:55.098Z,926.00
2024-01-31T01:04:54.983Z,925.00
2024-01-31T01:05:54.948Z,922.00
2024-01-31T01:06:54.985Z,919.00
2024-01-31T01:07:54.904Z,915.00
2024-01-31T01:08:54.919Z,915.00
2024-01-31T01:09:54.949Z,914.00
2024-01-31T01:10:54.922Z,914.00
2024-01-31T01:11:54.921Z,913.00
2024-01-31T01:12:54.963Z,912.00
2024-01-31T01:13:54.914Z,912.00
2024-01-31T01:15:01.635Z,912.00
2024-01-31T01:15:55.945Z,917.00
2024-01-31T01:16:54.937Z,919.00
2024-01-31T01:17:54.963Z,921.00
2024-01-31T01:18:55.032Z,918.00
2024-01-31T01:19:54.983Z,914.00
2024-01-31T01:20:54.946Z,913.00
2024-01-31T01:21:55.073Z,913.00
2024-01-31T01:22:54.963Z,911.00
2024-01-31T01:23:54.958Z,911.00
2024-01-31T01:24:55.071Z,912.00
2024-01-31T01:25:54.973Z,912.00
2024-01-31T01:26:55.038Z,911.00
2024-01-31T01:27:55.215Z,910.00
2024-01-31T01:28:55.149Z,911.00
2024-01-31T01:29:55.198Z,911.00
2024-01-31T01:30:55.362Z,910.00
2024-01-31T01:31:55.403Z,910.00
2024-01-31T01:32:55.382Z,905.00
2024-01-31T01:33:55.457Z,908.00
2024-01-31T01:34:55.519Z,909.00
2024-01-31T01:35:55.486Z,905.00
2024-01-31T01:36:55.568Z,906.00
2024-01-31T01:37:55.552Z,904.00
2024-01-31T01:38:55.600Z,907.00
2024-01-31T01:39:55.670Z,904.00
2024-01-31T01:40:55.690Z,905.00
2024-01-31T01:41:55.721Z,905.00
2024-01-31T01:42:55.947Z,905.00
2024-01-31T01:43:55.776Z,906.00
2024-01-31T01:44:55.829Z,904.00
2024-01-31T01:45:55.869Z,902.00
2024-01-31T01:46:55.911Z,901.00
2024-01-31T01:47:56.039Z,898.00
2024-01-31T01:48:56.166Z,902.00
2024-01-31T01:49:56.083Z,902.00
2024-01-31T01:50:56.063Z,901.00
2024-01-31T01:51:56.193Z,896.00
2024-01-31T01:52:56.129Z,894.00
2024-01-31T01:53:56.154Z,896.00
2024-01-31T01:54:56.277Z,893.00
2024-01-31T01:55:56.237Z,892.00
2024-01-31T01:56:56.288Z,889.00
2024-01-31T01:57:56.492Z,888.00
2024-01-31T01:58:56.386Z,889.00
2024-01-31T01:59:56.397Z,888.00
2024-01-31T02:00:56.560Z,893.00
2024-01-31T02:01:56.495Z,892.00
2024-01-31T02:02:56.538Z,894.00
2024-01-31T02:03:56.628Z,894.00
2024-01-31T02:04:56.849Z,892.00
2024-01-31T02:05:56.685Z,891.00
2024-01-31T02:06:56.811Z,890.00
2024-01-31T02:07:56.775Z,891.00
2024-01-31T02:08:56.759Z,890.00
2024-01-31T02:09:56.869Z,892.00
2024-01-31T02:10:56.838Z,892.00
2024-01-31T02:11:56.880Z,887.00
2024-01-31T02:12:56.955Z,883.00
2024-01-31T02:13:56.958Z,882.00
2024-01-31T02:14:57.013Z,882.00
2024-01-31T02:15:57.131Z,882.00
2024-01-31T02:16:57.081Z,879.00
2024-01-31T02:17:57.207Z,878.00
2024-01-31T02:18:57.136Z,879.00
2024-01-31T02:19:57.236Z,880.00
2024-01-31T02:20:57.187Z,881.00
2024-01-31T02:21:57.289Z,883.00
2024-01-31T02:22:57.268Z,882.00
2024-01-31T02:23:57.297Z,884.00
2024-01-31T02:24:57.384Z,880.00
2024-01-31T02:25:57.362Z,877.00
2024-01-31T02:26:57.396Z,876.00
2024-01-31T02:27:57.538Z,875.00
2024-01-31T02:28:57.477Z,873.00
2024-01-31T02:29:57.526Z,871.00
2024-01-31T02:30:57.554Z,870.00
2024-01-31T02:31:57.564Z,869.00
2024-01-31T02:32:57.660Z,874.00
2024-01-31T02:33:57.782Z,879.00
2024-01-31T02:34:57.784Z,876.00
2024-01-31T02:35:57.743Z,875.00
2024-01-31T02:36:57.816Z,872.00
2024-01-31T02:37:57.804Z,870.00
2024-01-31T02:38:57.841Z,865.00
2024-01-31T02:39:57.950Z,866.00
2024-01-31T02:40:57.920Z,866.00
2024-01-31T02:41:57.932Z,865.00
2024-01-31T02:42:58.004Z,864.00
2024-01-31T02:43:57.999Z,863.00
2024-01-31T02:44:58.028Z,863.00
2024-01-31T02:45:58.076Z,866.00
2024-01-31T02:46:58.089Z,865.00
2024-01-31T02:47:58.269Z,863.00
2024-01-31T02:48:58.223Z,867.00
2024-01-31T02:49:58.169Z,870.00
2024-01-31T02:50:58.173Z,867.00
2024-01-31T02:51:58.190Z,869.00
2024-01-31T02:52:58.215Z,866.00
2024-01-31T02:53:58.228Z,864.00
2024-01-31T02:54:58.299Z,861.00
2024-01-31T02:55:58.267Z,862.00
2024-01-31T02:56:58.290Z,862.00
2024-01-31T02:57:58.338Z,863.00
2024-01-31T02:58:58.350Z,862.00
2024-01-31T02:59:58.358Z,862.00
2024-01-31T03:00:58.499Z,865.00
2024-01-31T03:01:58.564Z,866.00
2024-01-31T03:02:58.461Z,864.00
2024-01-31T03:03:58.533Z,865.00
2024-01-31T03:04:58.620Z,860.00
2024-01-31T03:05:58.613Z,861.00
2024-01-31T03:06:58.595Z,861.00
2024-01-31T03:07:58.595Z,859.00
2024-01-31T03:08:58.618Z,858.00
2024-01-31T03:09:58.661Z,859.00
2024-01-31T03:10:58.676Z,860.00
2024-01-31T03:11:58.691Z,858.00
2024-01-31T03:12:58.765Z,861.00
2024-01-31T03:13:58.764Z,860.00
2024-01-31T03:14:58.777Z,859.00
2024-01-31T03:15:58.895Z,861.00
2024-01-31T03:16:58.833Z,863.00
2024-01-31T03:17:59.277Z,861.00
2024-01-31T03:18:59.034Z,860.00
2024-01-31T03:19:58.949Z,860.00
2024-01-31T03:20:58.931Z,859.00
2024-01-31T03:21:58.981Z,856.00
2024-01-31T03:22:58.960Z,855.00
2024-01-31T03:23:58.983Z,854.00
2024-01-31T03:24:59.043Z,853.00
2024-01-31T03:25:59.020Z,849.00
2024-01-31T03:26:59.034Z,850.00
2024-01-31T03:27:59.099Z,848.00
2024-01-31T03:28:59.120Z,848.00
2024-01-31T03:29:59.129Z,856.00
2024-01-31T03:30:59.228Z,854.00
2024-01-31T03:31:59.189Z,852.00
2024-01-31T03:32:59.331Z,852.00
2024-01-31T03:33:59.484Z,846.00
2024-01-31T03:34:59.314Z,843.00
2024-01-31T03:35:59.283Z,839.00
2024-01-31T03:36:59.373Z,838.00
2024-01-31T03:37:59.338Z,836.00
2024-01-31T03:38:59.388Z,835.00
2024-01-31T03:39:59.463Z,833.00
2024-01-31T03:40:59.429Z,833.00
2024-01-31T03:41:59.444Z,833.00
2024-01-31T03:42:59.533Z,832.00
2024-01-31T03:43:59.541Z,832.00
2024-01-31T03:44:59.593Z,830.00
2024-01-31T03:45:59.638Z,830.00
2024-01-31T03:46:59.678Z,827.00
2024-01-31T03:47:59.698Z,827.00
2024-01-31T03:48:59.876Z,833.00
2024-01-31T03:49:59.792Z,829.00
2024-01-31T03:50:59.838Z,828.00
2024-01-31T03:51:59.859Z,823.00
2024-01-31T03:52:59.915Z,820.00
2024-01-31T03:53:59.953Z,818.00
2024-01-31T03:55:00.003Z,820.00
2024-01-31T03:56:00.066Z,818.00
2024-01-31T03:57:00.122Z,821.00
2024-01-31T03:58:00.189Z,822.00
2024-01-31T03:59:00.205Z,823.00
2024-01-31T04:00:00.237Z,825.00
2024-01-31T04:01:00.394Z,826.00
2024-01-31T04:02:00.488Z,823.00
2024-01-31T04:03:00.400Z,819.00
2024-01-31T04:04:00.575Z,819.00
2024-01-31T04:05:00.766Z,820.00
2024-01-31T04:06:00.573Z,823.00
2024-01-31T04:07:00.639Z,820.00
2024-01-31T04:08:00.683Z,820.00
2024-01-31T04:09:00.830Z,822.00
2024-01-31T04:10:00.819Z,821.00
2024-01-31T04:11:00.847Z,822.00
2024-01-31T04:12:00.923Z,825.00
2024-01-31T04:13:00.976Z,827.00
2024-01-31T04:14:00.973Z,826.00
2024-01-31T04:15:01.024Z,822.00
2024-01-31T04:16:01.118Z,822.00
2024-01-31T04:17:01.169Z,822.00
2024-01-31T04:18:01.314Z,820.00
2024-01-31T04:19:01.355Z,823.00
2024-01-31T04:20:01.461Z,821.00
2024-01-31T04:21:01.364Z,821.00
2024-01-31T04:22:01.416Z,820.00
2024-01-31T04:23:01.467Z,819.00
2024-01-31T04:24:01.490Z,821.00
2024-01-31T04:25:01.634Z,820.00
2024-01-31T04:26:01.600Z,818.00
2024-01-31T04:27:01.668Z,818.00
2024-01-31T04:28:01.767Z,821.00
2024-01-31T04:29:01.796Z,822.00
2024-01-31T04:30:01.832Z,823.00
2024-01-31T04:31:01.955Z,824.00
2024-01-31T04:32:09.165Z,829.00
2024-01-31T04:33:09.232Z,824.00
2024-01-31T04:34:09.286Z,820.00
2024-01-31T04:35:09.248Z,820.00
2024-01-31T04:36:09.158Z,817.00
2024-01-31T04:37:09.207Z,817.00
2024-01-31T04:38:09.166Z,812.00
2024-01-31T04:39:09.173Z,813.00
2024-01-31T04:40:09.204Z,818.00
2024-01-31T04:41:09.170Z,823.00
2024-01-31T04:42:09.165Z,823.00
2024-01-31T04:43:09.193Z,822.00
2024-01-31T04:44:09.188Z,822.00
2024-01-31T04:45:09.174Z,819.00
2024-01-31T04:46:09.221Z,820.00
2024-01-31T04:47:09.175Z,820.00
2024-01-31T04:48:09.867Z,822.00
2024-01-31T04:49:09.436Z,822.00
2024-01-31T04:50:09.338Z,821.00
2024-01-31T04:51:09.186Z,822.00
2024-01-31T04:52:09.241Z,822.00
2024-01-31T04:53:09.296Z,821.00
2024-01-31T04:54:09.351Z,819.00
2024-01-31T04:55:09.449Z,819.00
2024-01-31T04:56:09.466Z,821.00
2024-01-31T04:57:09.531Z,820.00
2024-01-31T04:58:09.602Z,819.00
2024-01-31T04:59:09.651Z,818.00
2024-01-31T05:00:09.708Z,816.00
2024-01-31T05:01:09.887Z,815.00
2024-01-31T05:02:09.873Z,821.00
2024-01-31T05:03:09.890Z,819.00
2024-01-31T05:04:10.035Z,819.00
2024-01-31T05:05:10.081Z,820.00
2024-01-31T05:06:10.069Z,820.00
2024-01-31T05:07:10.160Z,821.00
2024-01-31T05:08:10.181Z,819.00
2024-01-31T05:09:10.239Z,818.00
2024-01-31T05:10:10.408Z,818.00
2024-01-31T05:11:10.354Z,818.00
2024-01-31T05:12:10.411Z,819.00
2024-01-31T05:13:10.504Z,819.00
2024-01-31T05:14:10.544Z,819.00
2024-01-31T05:15:10.579Z,819.00
2024-01-31T05:16:10.666Z,818.00
2024-01-31T05:17:10.703Z,820.00
2024-01-31T05:18:10.789Z,818.00
2024-01-31T05:19:10.918Z,819.00
2024-01-31T05:20:10.939Z,817.00
2024-01-31T05:21:10.948Z,813.00
2024-01-31T05:22:11.025Z,814.00
2024-01-31T05:23:11.080Z,817.00
2024-01-31T05:24:11.131Z,816.00
2024-01-31T05:25:11.226Z,815.00
2024-01-31T05:26:11.254Z,818.00
2024-01-31T05:27:11.306Z,818.00
2024-01-31T05:28:11.384Z,815.00
2024-01-31T05:29:11.427Z,810.00
2024-01-31T05:30:11.474Z,814.00
2024-01-31T05:31:11.592Z,813.00
2024-01-31T05:32:11.586Z,813.00
2024-01-31T05:33:11.751Z,812.00
2024-01-31T05:34:11.976Z,810.00
2024-01-31T05:35:11.754Z,809.00
2024-01-31T05:36:11.808Z,811.00
2024-01-31T05:37:11.879Z,811.00
2024-01-31T05:38:11.924Z,810.00
2024-01-31T05:39:11.999Z,808.00
2024-01-31T05:40:12.061Z,809.00
2024-01-31T05:41:12.112Z,812.00
2024-01-31T05:42:12.153Z,814.00
2024-01-31T05:43:12.245Z,814.00
2024-01-31T05:44:12.259Z,812.00
2024-01-31T05:45:12.314Z,812.00
2024-01-31T05:46:12.404Z,812.00
2024-01-31T05:47:12.447Z,812.00
2024-01-31T05:48:12.514Z,810.00
2024-01-31T05:50:12.778Z,806.00
2024-01-31T05:51:12.604Z,804.00
2024-01-31T05:52:12.671Z,806.00
2024-01-31T05:53:12.717Z,799.00
2024-01-31T05:54:12.762Z,799.00
2024-01-31T05:55:12.850Z,800.00
2024-01-31T05:56:12.865Z,801.00
2024-01-31T05:57:12.929Z,802.00
2024-01-31T05:58:13.046Z,802.00
2024-01-31T05:59:13.028Z,801.00
2024-01-31T06:00:14.602Z,801.00
2024-01-31T06:01:13.214Z,804.00
2024-01-31T06:02:13.272Z,804.00
2024-01-31T06:03:13.287Z,801.00
2024-01-31T06:04:13.442Z,804.00
2024-01-31T06:05:13.478Z,804.00
2024-01-31T06:06:13.470Z,804.00
2024-01-31T06:07:13.481Z,801.00
2024-01-31T06:08:13.465Z,802.00
2024-01-31T06:09:13.553Z,797.00
2024-01-31T06:10:13.957Z,797.00
2024-01-31T06:11:13.623Z,798.00
2024-01-31T06:12:13.673Z,798.00
2024-01-31T06:13:13.772Z,796.00
2024-01-31T06:14:13.774Z,798.00
2024-01-31T06:15:13.829Z,799.00
2024-01-31T06:16:13.896Z,797.00
2024-01-31T06:17:13.943Z,794.00
2024-01-31T06:18:14.276Z,794.00
2024-01-31T06:19:14.072Z,799.00
2024-01-31T06:20:14.185Z,800.00
2024-01-31T06:21:14.209Z,804.00
2024-01-31T06:22:14.225Z,804.00
2024-01-31T06:23:14.247Z,800.00
2024-01-31T06:24:14.314Z,801.00
2024-01-31T06:25:14.435Z,800.00
2024-01-31T06:26:14.403Z,801.00
2024-01-31T06:27:14.473Z,799.00
2024-01-31T06:28:14.565Z,799.00
2024-01-31T06:29:14.580Z,813.00
2024-01-31T06:30:15.610Z,816.00
2024-01-31T06:31:14.786Z,817.00
2024-01-31T06:32:14.810Z,816.00
2024-01-31T06:33:14.880Z,814.00
2024-01-31T06:34:14.906Z,818.00
2024-01-31T06:35:14.989Z,825.00
2024-01-31T06:36:14.941Z,835.00
2024-01-31T06:37:15.027Z,849.00
2024-01-31T06:38:15.039Z,867.00
2024-01-31T06:39:15.082Z,884.00
2024-01-31T06:40:15.209Z,897.00
2024-01-31T06:41:15.188Z,900.00
2024-01-31T06:42:15.225Z,906.00
2024-01-31T06:43:15.333Z,920.00
2024-01-31T06:44:15.367Z,959.00
2024-01-31T06:45:16.301Z,1118.00
2024-01-31T06:46:15.470Z,1048.00
2024-01-31T06:47:15.561Z,1008.00
2024-01-31T06:48:15.651Z,1080.00
2024-01-31T06:49:15.733Z,1083.00
2024-01-31T06:50:15.782Z,1090.00
2024-01-31T06:51:15.596Z,1191.00
2024-01-31T06:52:15.655Z,1228.00
2024-01-31T06:53:15.665Z,1206.00
2024-01-31T06:54:15.706Z,1223.00
2024-01-31T06:55:15.784Z,1223.00
2024-01-31T06:56:15.777Z,1209.00
2024-01-31T06:57:15.817Z,1089.00
2024-01-31T06:58:15.922Z,1097.00
2024-01-31T06:59:15.925Z,1004.00
2024-01-31T07:00:15.939Z,983.00
2024-01-31T07:01:16.079Z,951.00
2024-01-31T07:02:16.055Z,906.00
2024-01-31T07:03:16.075Z,872.00
2024-01-31T07:04:16.183Z,849.00
2024-01-31T07:05:16.343Z,837.00
2024-01-31T07:06:16.204Z,830.00
2024-01-31T07:07:16.354Z,819.00
2024-01-31T07:08:16.303Z,814.00
2024-01-31T07:09:16.378Z,780.00
2024-01-31T07:10:16.474Z,787.00
2024-01-31T07:11:16.428Z,780.00
2024-01-31T07:12:16.483Z,759.00
2024-01-31T07:13:16.594Z,754.00
2024-01-31T07:14:16.600Z,752.00
2024-01-31T07:15:18.990Z,747.00
2024-01-31T07:16:16.906Z,743.00
2024-01-31T07:17:16.900Z,738.00
2024-01-31T07:18:17.051Z,734.00
2024-01-31T07:19:17.086Z,731.00
2024-01-31T07:20:17.124Z,730.00
2024-01-31T07:21:18.310Z,728.00
2024-01-31T07:22:17.025Z,724.00
2024-01-31T07:23:17.016Z,716.00
2024-01-31T07:24:24.715Z,713.00
2024-01-31T07:25:18.094Z,702.00
2024-01-31T07:26:17.000Z,699.00
2024-01-31T07:27:17.011Z,695.00
2024-01-31T07:28:17.070Z,691.00
2024-01-31T07:29:17.013Z,683.00
2024-01-31T07:30:17.019Z,680.00
2024-01-31T07:31:17.057Z,677.00
2024-01-31T07:32:17.026Z,674.00
2024-01-31T07:33:17.114Z,671.00
2024-01-31T07:34:17.083Z,666.00
2024-01-31T07:35:17.056Z,660.00
2024-01-31T07:36:17.027Z,650.00
2024-01-31T07:37:17.056Z,647.00
2024-01-31T07:38:18.770Z,642.00
2024-01-31T07:39:17.033Z,643.00
2024-01-31T07:40:17.042Z,638.00
2024-01-31T07:41:17.117Z,636.00
2024-01-31T07:42:17.080Z,635.00
2024-01-31T07:43:17.083Z,633.00
2024-01-31T07:44:17.018Z,632.00
2024-01-31T07:45:17.023Z,627.00
2024-01-31T07:46:17.078Z,623.00
2024-01-31T07:47:17.027Z,625.00
2024-01-31T07:48:17.060Z,624.00
2024-01-31T07:49:17.190Z,624.00
2024-01-31T07:50:17.066Z,621.00
2024-01-31T07:51:17.034Z,619.00
2024-01-31T07:52:17.052Z,652.00
2024-01-31T07:53:17.104Z,686.00
2024-01-31T07:54:17.037Z,743.00
2024-01-31T07:55:17.131Z,755.00
2024-01-31T07:56:17.047Z,784.00
2024-01-31T07:57:17.045Z,887.00
2024-01-31T07:58:17.088Z,898.00
2024-01-31T07:59:17.152Z,950.00
2024-01-31T08:00:17.056Z,980.00
2024-01-31T08:01:17.216Z,1018.00
2024-01-31T08:02:17.190Z,1100.00
2024-01-31T08:03:17.060Z,1153.00
2024-01-31T08:04:17.157Z,1183.00
2024-01-31T08:05:17.055Z,1220.00
2024-01-31T08:06:17.076Z,1247.00
2024-01-31T08:07:17.087Z,1284.00
2024-01-31T08:08:17.049Z,1366.00
2024-01-31T08:10:17.091Z,1402.00
2024-01-31T08:11:17.067Z,1424.00
2024-01-31T08:12:17.075Z,1441.00
2024-01-31T08:13:17.164Z,1496.00
2024-01-31T08:14:17.077Z,1506.00
2024-01-31T08:15:17.069Z,1515.00
2024-01-31T08:16:17.130Z,1546.00
2024-01-31T08:17:17.073Z,1577.00
2024-01-31T08:18:17.115Z,1592.00
2024-01-31T08:19:17.174Z,1621.00
2024-01-31T08:20:17.344Z,1652.00
2024-01-31T08:21:17.093Z,1675.00
2024-01-31T08:22:17.650Z,1694.00
2024-01-31T08:23:17.188Z,1734.00
2024-01-31T08:24:17.175Z,1758.00
2024-01-31T08:25:17.480Z,1797.00
2024-01-31T08:26:17.191Z,1816.00
2024-01-31T08:27:17.144Z,1829.00
2024-01-31T08:28:17.162Z,1858.00
2024-01-31T08:29:23.545Z,1903.00
2024-01-31T08:30:18.158Z,1914.00
2024-01-31T08:31:17.137Z,1927.00
2024-01-31T08:32:17.144Z,1949.00
2024-01-31T08:33:17.161Z,1960.00
2024-01-31T08:34:17.217Z,2042.00
2024-01-31T08:35:17.183Z,2063.00
2024-01-31T08:36:17.134Z,2082.00
2024-01-31T08:37:17.125Z,2117.00
2024-01-31T08:38:17.131Z,2141.00
2024-01-31T08:39:17.138Z,2167.00
2024-01-31T08:40:20.720Z,2194.00
2024-01-31T08:41:17.161Z,2206.00
2024-01-31T08:42:17.152Z,2225.00
2024-01-31T08:43:17.161Z,2246.00
2024-01-31T08:44:17.178Z,2309.00
2024-01-31T08:45:17.165Z,2325.00
2024-01-31T08:46:17.192Z,2353.00
2024-01-31T08:47:19.367Z,2361.00
2024-01-31T08:48:17.169Z,2372.00
2024-01-31T08:49:17.190Z,2394.00
2024-01-31T08:50:17.176Z,2407.00
2024-01-31T08:51:17.162Z,2399.00
2024-01-31T08:52:17.180Z,2399.00
2024-01-31T08:53:17.150Z,2401.00
2024-01-31T08:54:17.175Z,2463.00
2024-01-31T08:55:17.298Z,2487.00
2024-01-31T08:56:17.262Z,2533.00
2024-01-31T08:57:19.693Z,2557.00
2024-01-31T08:58:17.168Z,2563.00
2024-01-31T08:59:17.165Z,2621.00
2024-01-31T09:00:17.170Z,2643.00
2024-01-31T09:01:17.262Z,2655.00
2024-01-31T09:02:17.346Z,2697.00
2024-01-31T09:03:17.179Z,2717.00
2024-01-31T09:04:18.569Z,2733.00
2024-01-31T09:05:17.253Z,2767.00
2024-01-31T09:06:17.239Z,2800.00
2024-01-31T09:07:17.186Z,2842.00
2024-01-31T09:08:17.183Z,2841.00
2024-01-31T09:09:17.191Z,2839.00
2024-01-31T09:10:17.297Z,2850.00
2024-01-31T09:11:17.186Z,2861.00
2024-01-31T09:12:17.198Z,2873.00
2024-01-31T09:13:17.204Z,2984.00
2024-01-31T09:14:17.228Z,2982.00
2024-01-31T09:15:17.190Z,2993.00
2024-01-31T09:16:17.247Z,3021.00
2024-01-31T09:17:17.200Z,3043.00
2024-01-31T09:18:17.300Z,3056.00
2024-01-31T09:19:17.289Z,3075.00
2024-01-31T09:20:17.347Z,3106.00
2024-01-31T09:21:17.205Z,3146.00
2024-01-31T09:22:17.246Z,3161.00
2024-01-31T09:23:17.223Z,3176.00
2024-01-31T09:24:17.225Z,3199.00
2024-01-31T09:25:17.250Z,3216.00
2024-01-31T09:26:17.232Z,3235.00
2024-01-31T09:27:17.228Z,3237.00
2024-01-31T09:28:17.252Z,3257.00
2024-01-31T09:29:17.238Z,3272.00
2024-01-31T09:30:17.236Z,3415.00
2024-01-31T09:31:17.305Z,3400.00
2024-01-31T09:32:18.249Z,3399.00
2024-01-31T09:33:17.274Z,3408.00
2024-01-31T09:34:17.290Z,3450.00
2024-01-31T09:35:17.313Z,3501.00
2024-01-31T09:36:17.247Z,3508.00
2024-01-31T09:37:17.270Z,3528.00
2024-01-31T09:38:17.249Z,3528.00
2024-01-31T09:39:17.257Z,3541.00
2024-01-31T09:40:17.496Z,3570.00
2024-01-31T09:41:17.251Z,3605.00
2024-01-31T09:42:17.268Z,3702.00
2024-01-31T09:43:17.287Z,3704.00
2024-01-31T09:44:17.262Z,3706.00
2024-01-31T09:45:17.264Z,3698.00
2024-01-31T09:46:17.294Z,3707.00
2024-01-31T09:47:17.274Z,3711.00
2024-01-31T09:48:17.346Z,3722.00
2024-01-31T09:49:17.530Z,2839.00
2024-01-31T09:50:17.343Z,2409.00
2024-01-31T09:51:17.297Z,2367.00
2024-01-31T09:52:17.297Z,2180.00
2024-01-31T09:53:17.276Z,2340.00
2024-01-31T09:54:17.288Z,2217.00
2024-01-31T09:55:17.317Z,2313.00
2024-01-31T09:56:17.273Z,2386.00
2024-01-31T09:57:17.271Z,2298.00
2024-01-31T09:58:17.296Z,2256.00
2024-01-31T09:59:17.289Z,2210.00
2024-01-31T10:00:17.277Z,2310.00
2024-01-31T10:01:21.727Z,2316.00
2024-01-31T10:02:18.367Z,2252.00
2024-01-31T10:03:17.313Z,2202.00
2024-01-31T10:04:17.339Z,2205.00
2024-01-31T10:05:17.281Z,2261.00
2024-01-31T10:06:17.478Z,2204.00
2024-01-31T10:07:17.310Z,2206.00
2024-01-31T10:08:17.298Z,2163.00
2024-01-31T10:09:17.288Z,2078.00
2024-01-31T10:10:17.340Z,1970.00
2024-01-31T10:11:17.294Z,1886.00
2024-01-31T10:12:17.381Z,1871.00
2024-01-31T10:13:17.393Z,1871.00
2024-01-31T10:14:17.319Z,1872.00
2024-01-31T10:15:17.306Z,1757.00
2024-01-31T10:16:17.312Z,1814.00
2024-01-31T10:17:17.299Z,1851.00
2024-01-31T10:18:17.369Z,1808.00
2024-01-31T10:19:17.367Z,1818.00
2024-01-31T10:20:17.465Z,1823.00
2024-01-31T10:21:17.374Z,1814.00
2024-01-31T10:22:17.470Z,1728.00
2024-01-31T10:23:17.455Z,1710.00
2024-01-31T10:24:17.817Z,1583.00
2024-01-31T10:25:17.701Z,1639.00
2024-01-31T10:26:17.710Z,1453.00
2024-01-31T10:27:17.639Z,1614.00
2024-01-31T10:28:17.728Z,1585.00
2024-01-31T10:29:17.809Z,1608.00
2024-01-31T10:30:17.810Z,1630.00
2024-01-31T10:31:17.940Z,1617.00
2024-01-31T10:32:17.974Z,1587.00
2024-01-31T10:33:18.085Z,1601.00
2024-01-31T10:34:21.841Z,1605.00
2024-01-31T10:35:28.498Z,1601.00
2024-01-31T10:37:52.197Z,1442.00
2024-01-31T10:38:19.238Z,1449.00
2024-01-31T10:39:18.185Z,1534.00
2024-01-31T10:40:18.198Z,1508.00
2024-01-31T10:41:18.053Z,1492.00
2024-01-31T10:42:18.085Z,1463.00
2024-01-31T10:43:18.058Z,1473.00
2024-01-31T10:44:18.105Z,1493.00
2024-01-31T10:45:18.185Z,1488.00
2024-01-31T10:46:18.091Z,1490.00
2024-01-31T10:47:18.122Z,1398.00
2024-01-31T10:48:18.237Z,1308.00
2024-01-31T10:49:18.892Z,1300.00
2024-01-31T10:50:18.223Z,1223.00
2024-01-31T10:51:21.985Z,1293.00
2024-01-31T10:52:18.288Z,1216.00
2024-01-31T10:53:18.258Z,1250.00
2024-01-31T10:54:18.438Z,1367.00
2024-01-31T10:55:18.410Z,1424.00
2024-01-31T10:56:18.411Z,1474.00
2024-01-31T10:57:18.266Z,1580.00
2024-01-31T10:58:18.277Z,1632.00
2024-01-31T10:59:18.280Z,1644.00
2024-01-31T11:00:18.351Z,1667.00
2024-01-31T11:01:18.335Z,1681.00
2024-01-31T11:02:18.282Z,1714.00
2024-01-31T11:03:18.323Z,1727.00
2024-01-31T11:04:18.278Z,1762.00
2024-01-31T11:05:18.388Z,1802.00
2024-01-31T11:06:18.435Z,1812.00
2024-01-31T11:07:18.731Z,1809.00
2024-01-31T11:08:18.297Z,1810.00
2024-01-31T11:09:18.304Z,1828.00
2024-01-31T11:10:18.308Z,1839.00
2024-01-31T11:11:18.290Z,1887.00
2024-01-31T11:12:18.303Z,1891.00
2024-01-31T11:13:18.311Z,1918.00
2024-01-31T11:14:18.308Z,1930.00
2024-01-31T11:15:18.317Z,1951.00
2024-01-31T11:16:18.312Z,1960.00
2024-01-31T11:17:18.314Z,1965.00
2024-01-31T11:18:18.449Z,1975.00
2024-01-31T11:19:18.369Z,1989.00
2024-01-31T11:20:18.321Z,1985.00
2024-01-31T11:21:18.385Z,2000.00
2024-01-31T11:22:18.334Z,2025.00
2024-01-31T11:23:18.343Z,2053.00
2024-01-31T11:24:18.450Z,2064.00
2024-01-31T11:25:18.345Z,2095.00
2024-01-31T11:26:18.356Z,2108.00
2024-01-31T11:27:18.336Z,2101.00
2024-01-31T11:28:18.338Z,2099.00
2024-01-31T11:29:18.335Z,2117.00
2024-01-31T11:30:18.403Z,2151.00
2024-01-31T11:31:18.381Z,2162.00
2024-01-31T11:32:18.352Z,2174.00
2024-01-31T11:33:18.655Z,2232.00
2024-01-31T11:34:18.494Z,2234.00
2024-01-31T11:35:18.345Z,2229.00
2024-01-31T11:36:18.432Z,2229.00
2024-01-31T11:37:18.450Z,2286.00
2024-01-31T11:38:18.764Z,2268.00
2024-01-31T11:39:18.566Z,2302.00
2024-01-31T11:40:18.622Z,2309.00
2024-01-31T11:41:18.658Z,2307.00
2024-01-31T11:42:18.722Z,2268.00
2024-01-31T11:43:18.831Z,2241.00
2024-01-31T11:44:18.780Z,2239.00
2024-01-31T11:45:18.796Z,2191.00
2024-01-31T11:46:18.839Z,2196.00
2024-01-31T11:47:18.866Z,2216.00
2024-01-31T11:48:19.042Z,2081.00
2024-01-31T11:49:19.049Z,1998.00
2024-01-31T11:50:18.970Z,2016.00
2024-01-31T11:51:19.001Z,2049.00
2024-01-31T11:52:19.048Z,2109.00
2024-01-31T11:53:19.046Z,2110.00
2024-01-31T11:54:19.055Z,2117.00
2024-01-31T11:55:19.092Z,2099.00
2024-01-31T11:56:19.116Z,2070.00
2024-01-31T11:57:19.136Z,2064.00
2024-01-31T11:58:19.160Z,2084.00
2024-01-31T11:59:19.162Z,2107.00
2024-01-31T12:00:19.335Z,2115.00
2024-01-31T12:01:19.230Z,2121.00
2024-01-31T12:02:19.247Z,2124.00
2024-01-31T12:03:19.256Z,2095.00
2024-01-31T12:04:19.318Z,2100.00
2024-01-31T12:05:19.373Z,2100.00
2024-01-31T12:06:19.405Z,2073.00
2024-01-31T12:07:19.444Z,2102.00
2024-01-31T12:08:19.416Z,2153.00
2024-01-31T12:09:19.394Z,2057.00
2024-01-31T12:10:19.410Z,2107.00
2024-01-31T12:11:19.428Z,2120.00
2024-01-31T12:12:19.449Z,2099.00
2024-01-31T12:13:19.479Z,2060.00
2024-01-31T12:14:19.503Z,2044.00
2024-01-31T12:15:19.532Z,2084.00
2024-01-31T12:16:19.546Z,2034.00
2024-01-31T12:17:19.541Z,2063.00
2024-01-31T12:18:19.753Z,2031.00
2024-01-31T12:19:19.825Z,1953.00
2024-01-31T12:20:19.635Z,2062.00
2024-01-31T12:21:19.646Z,1992.00
2024-01-31T12:22:19.729Z,2008.00
2024-01-31T12:23:19.697Z,2005.00